Time;durP1;ratioP1;P1;durP2;ratioP2;P2;SDS_P1;SDS_P2;PMS_P1;PMS_P2;Temp;Humidity;BMP_temperature;BMP_pressure;BME280_temperature;BME280_humidity;BME280_pressure;Samples;Min_cycle;Max_cycle;Signal;HPM_P1;HPM_P2
2022/11/06 00:00:40;;;;;;;;;12.00;8.00;;;;;12.82;63.73;101178.16;5051821;28;45151;-61
2022/11/06 00:03:06;;;;;;;;;10.33;7.00;;;;;12.80;64.61;101177.22;5050161;28;45013;-61
2022/11/06 00:08:30;;;;;;;;;9.00;7.00;;;;;12.79;64.02;101154.88;5051901;28;45053;-61
2022/11/06 00:10:56;;;;;;;;;10.00;8.00;;;;;12.78;64.65;101154.84;5054481;28;44974;-62
2022/11/06 00:13:22;;;;;;;;;8.33;8.00;;;;;12.71;63.77;101149.31;5048130;28;45427;-61
2022/11/06 00:15:47;;;;;;;;;21.00;16.25;;;;;12.67;63.48;101134.06;5065738;28;45493;-61
2022/11/06 00:18:12;;;;;;;;;6.00;6.00;;;;;12.80;63.99;101161.16;5066856;28;45155;-61
2022/11/06 00:20:38;;;;;;;;;9.00;7.33;;;;;12.78;63.99;101163.78;5069915;28;44989;-61
2022/11/06 00:23:03;;;;;;;;;8.25;7.25;;;;;12.74;63.39;101169.97;5071517;28;45114;-61
2022/11/06 00:25:28;;;;;;;;;5.00;4.33;;;;;12.69;63.50;101168.94;5048701;28;47711;-62
2022/11/06 00:27:53;;;;;;;;;9.67;4.00;;;;;12.71;64.01;101175.25;5068211;28;55424;-61
2022/11/06 00:30:19;;;;;;;;;9.00;6.33;;;;;12.72;62.97;101164.56;5069434;28;45323;-62
2022/11/06 00:32:46;;;;;;;;;9.00;7.00;;;;;12.68;63.50;101175.16;5065781;28;45349;-61
2022/11/06 00:35:12;;;;;;;;;7.33;6.00;;;;;12.62;63.51;101173.25;5052258;28;45129;-60
2022/11/06 00:37:37;;;;;;;;;12.00;9.00;;;;;12.64;64.10;101184.00;5051301;28;45158;-61
2022/11/06 00:40:04;;;;;;;;;9.00;7.33;;;;;12.62;63.83;101172.31;5054316;28;45264;-62
2022/11/06 00:42:29;;;;;;;;;8.00;7.67;;;;;12.59;64.30;101170.50;5050780;28;45057;-60
2022/11/06 00:44:54;;;;;;;;;10.33;7.67;;;;;12.56;64.85;101156.13;5057908;28;45082;-62
2022/11/06 00:47:20;;;;;;;;;8.67;8.67;;;;;12.19;63.74;101099.78;5056737;28;46346;-61
2022/11/06 00:49:45;;;;;;;;;10.67;7.67;;;;;12.57;63.75;101157.91;5048522;28;45248;-60
2022/11/06 00:52:10;;;;;;;;;12.67;8.33;;;;;12.54;64.46;101150.72;5050563;28;46396;-61
2022/11/06 00:54:36;;;;;;;;;6.00;6.00;;;;;12.56;63.86;101161.47;5053101;28;45378;-61
2022/11/06 00:57:01;;;;;;;;;11.33;9.00;;;;;12.56;64.43;101158.78;5046534;28;46034;-61
2022/11/06 00:59:26;;;;;;;;;9.50;9.50;;;;;12.57;63.70;101152.53;5049006;28;44958;-60
2022/11/06 01:01:52;;;;;;;;;10.00;10.00;;;;;12.53;64.33;101130.13;5062414;28;44981;-61
2022/11/06 01:04:21;;;;;;;;;10.00;7.25;;;;;12.58;63.39;101132.94;5050801;28;46284;-61
2022/11/06 01:06:51;;;;;;;;;9.33;6.33;;;;;12.56;63.80;101132.88;5047722;28;45384;-61
2022/11/06 01:09:24;;;;;;;;;11.50;7.00;;;;;12.51;64.04;101137.22;5047944;28;45407;-61
2022/11/06 01:11:56;;;;;;;;;12.50;9.50;;;;;12.58;64.54;101139.19;5053817;28;45240;-62
2022/11/06 01:14:23;;;;;;;;;7.75;6.50;;;;;12.61;63.81;101131.22;5053310;28;45160;-61
2022/11/06 01:16:49;;;;;;;;;8.67;7.00;;;;;12.48;63.83;101105.88;5048809;28;45475;-61
2022/11/06 01:19:16;;;;;;;;;9.00;6.67;;;;;12.57;63.59;101101.63;5039798;28;45342;-62
2022/11/06 01:21:44;;;;;;;;;9.50;6.50;;;;;12.64;64.16;101104.50;5052050;28;45140;-62
2022/11/06 01:24:13;;;;;;;;;8.33;6.00;;;;;12.72;63.58;101110.03;5059317;28;45089;-61
2022/11/06 01:26:38;;;;;;;;;6.00;5.00;;;;;12.74;64.15;101102.94;5061401;28;45283;-60
2022/11/06 01:29:07;;;;;;;;;5.33;5.00;;;;;12.82;63.27;101114.75;5051622;28;46093;-61
2022/11/06 01:31:33;;;;;;;;;7.00;6.00;;;;;12.82;63.86;101109.38;5051994;28;45246;-61
2022/11/06 01:34:00;;;;;;;;;7.00;5.00;;;;;12.87;63.60;101115.75;5050185;28;45031;-60
2022/11/06 01:36:26;;;;;;;;;8.67;6.00;;;;;12.82;62.95;101105.78;5051379;28;45084;-61
2022/11/06 01:38:54;;;;;;;;;7.33;6.00;;;;;12.83;63.16;101111.16;5053198;28;45206;-60
2022/11/06 01:41:25;;;;;;;;;8.00;6.33;;;;;12.88;63.24;101117.53;5050250;28;45033;-62
2022/11/06 01:43:56;;;;;;;;;6.00;4.00;;;;;12.92;62.93;101118.53;5056974;28;45382;-60
2022/11/06 01:46:25;;;;;;;;;5.67;5.67;;;;;12.88;62.67;101122.91;5051628;28;46079;-60
2022/11/06 01:48:58;;;;;;;;;5.00;5.00;;;;;12.87;63.08;101112.19;5057672;28;45165;-61
2022/11/06 01:51:26;;;;;;;;;6.00;5.00;;;;;12.76;62.67;101092.25;5054319;28;45255;-60
2022/11/06 01:53:53;;;;;;;;;8.00;5.00;;;;;12.84;63.80;101104.06;5056553;28;45368;-60
2022/11/06 01:56:20;;;;;;;;;14.33;7.67;;;;;12.84;62.72;101107.63;5054345;28;45476;-61
2022/11/06 01:58:50;;;;;;;;;9.33;5.67;;;;;12.84;63.34;101096.00;5054311;28;45196;-60
2022/11/06 02:01:16;;;;;;;;;5.67;5.67;;;;;12.85;63.40;101101.41;5058095;28;45162;-61
2022/11/06 02:03:52;;;;;;;;;6.67;4.67;;;;;12.53;63.52;101026.50;5054362;28;45097;-60
2022/11/06 02:06:18;;;;;;;;;5.00;5.00;;;;;12.89;62.98;101084.50;5054285;28;45240;-60
2022/11/06 02:08:43;;;;;;;;;8.67;6.00;;;;;12.92;63.37;101086.34;5054746;28;45061;-60
2022/11/06 02:11:08;;;;;;;;;4.67;2.00;;;;;12.95;62.87;101080.13;5054805;28;45080;-60
2022/11/06 02:14:09;;;;;;;;;7.67;4.00;;;;;12.96;63.36;101071.25;5054826;28;44993;-61
2022/11/06 02:17:03;;;;;;;;;5.33;2.67;;;;;12.90;62.25;101058.56;4953837;28;45258;-59
2022/11/06 02:19:35;;;;;;;;;4.67;4.67;;;;;12.95;62.76;101050.63;5051694;28;45203;-60
2022/11/06 02:22:39;;;;;;;;;4.00;3.33;;;;;12.91;62.03;101055.94;5051743;28;44856;-60
2022/11/06 02:25:23;;;;;;;;;3.33;3.33;;;;;12.93;63.43;101036.31;5021720;28;45941;-60
2022/11/06 02:28:02;;;;;;;;;4.33;4.33;;;;;12.90;62.82;101016.59;5053123;28;45441;-60
2022/11/06 02:30:32;;;;;;;;;3.67;3.67;;;;;12.94;62.86;101009.53;5053744;28;44739;-60
2022/11/06 02:33:30;;;;;;;;;6.00;4.00;;;;;12.95;62.78;101018.47;5055403;28;44918;-61
2022/11/06 02:36:01;;;;;;;;;6.67;5.67;;;;;12.98;62.51;101023.88;5056605;28;45132;-60
2022/11/06 02:38:36;;;;;;;;;4.00;4.00;;;;;12.98;62.46;101032.84;5059213;28;45732;-61
2022/11/06 02:41:05;;;;;;;;;5.33;5.00;;;;;12.92;62.86;101019.31;5058568;28;45056;-60
2022/11/06 02:43:38;;;;;;;;;7.00;4.33;;;;;12.97;62.25;101033.72;5056804;28;45158;-60
2022/11/06 02:46:19;;;;;;;;;4.00;4.00;;;;;13.00;62.40;101033.78;5067989;28;45104;-62
2022/11/06 02:48:51;;;;;;;;;6.00;4.33;;;;;13.04;62.84;101027.59;5056358;28;47857;-62
2022/11/06 02:51:22;;;;;;;;;3.33;3.33;;;;;13.03;62.08;101030.25;5057475;28;45182;-60
2022/11/06 02:53:48;;;;;;;;;6.00;5.33;;;;;13.02;62.29;101018.63;5059638;28;45357;-59
2022/11/06 02:56:19;;;;;;;;;8.00;4.00;;;;;13.03;62.63;101022.19;5050301;28;45121;-60
2022/11/06 02:58:50;;;;;;;;;3.33;3.33;;;;;13.05;62.55;101015.09;5051687;28;45306;-60
2022/11/06 03:01:38;;;;;;;;;5.00;4.00;;;;;13.04;62.49;101027.59;5053088;28;44974;-60
2022/11/06 03:04:15;;;;;;;;;7.33;5.00;;;;;13.02;61.98;101015.06;5061372;28;45319;-60
2022/11/06 03:07:19;;;;;;;;;7.33;5.00;;;;;13.00;62.00;101023.06;5053046;28;45071;-61
2022/11/06 03:09:47;;;;;;;;;5.00;3.00;;;;;12.96;62.10;101013.13;5051440;28;45609;-61
2022/11/06 03:12:18;;;;;;;;;6.00;4.00;;;;;12.95;61.97;100992.56;5055862;28;45281;-60
2022/11/06 03:14:58;;;;;;;;;3.00;3.00;;;;;12.94;62.42;101001.47;5053617;28;45174;-59
2022/11/06 03:17:43;;;;;;;;;7.00;4.00;;;;;12.90;62.44;100997.81;5053502;28;45140;-60
2022/11/06 03:20:41;;;;;;;;;5.67;4.00;;;;;12.92;62.22;100981.78;5052793;28;45666;-60
2022/11/06 03:23:27;;;;;;;;;5.67;4.00;;;;;12.90;62.95;100975.44;5051771;28;44922;-61
2022/11/06 03:26:14;;;;;;;;;6.67;4.00;;;;;12.90;62.14;100976.38;5053194;28;45277;-61
2022/11/06 03:28:52;;;;;;;;;4.00;4.00;;;;;12.88;61.88;100966.47;5053251;28;45113;-59
2022/11/06 03:31:24;;;;;;;;;7.33;6.00;;;;;12.87;63.03;100976.31;5052802;28;45737;-61
2022/11/06 03:33:54;;;;;;;;;4.33;4.33;;;;;12.85;62.76;100971.78;5053085;28;45077;-61
2022/11/06 03:36:29;;;;;;;;;6.67;6.67;;;;;12.84;62.32;100964.63;5053367;28;45191;-61
2022/11/06 03:39:06;;;;;;;;;4.67;4.00;;;;;12.78;62.78;100969.84;5056927;28;45294;-61
2022/11/06 03:42:02;;;;;;;;;5.67;5.67;;;;;12.76;62.62;100968.91;5052707;28;46796;-60
2022/11/06 03:44:31;;;;;;;;;4.67;4.67;;;;;12.57;62.08;100922.94;5068557;28;45124;-61
2022/11/06 03:47:02;;;;;;;;;4.00;4.00;;;;;12.72;61.77;100958.13;5055435;28;44954;-61
2022/11/06 03:49:53;;;;;;;;;7.00;5.00;;;;;12.69;63.01;100970.56;5034654;28;45252;-60
2022/11/06 03:52:26;;;;;;;;;4.67;4.67;;;;;12.66;62.80;100968.72;5056086;28;45734;-61
2022/11/06 03:55:16;;;;;;;;;3.00;3.00;;;;;12.67;63.04;100983.94;5053794;28;45132;-61
2022/11/06 03:58:12;;;;;;;;;7.00;6.00;;;;;12.65;62.68;100960.63;5058149;28;45067;-61
2022/11/06 04:00:40;;;;;;;;;4.00;4.00;;;;;12.67;62.37;100946.41;5068399;28;45044;-61
2022/11/06 04:03:15;;;;;;;;;8.00;5.00;;;;;12.67;62.42;100943.72;5055525;28;45975;-61
2022/11/06 04:05:52;;;;;;;;;3.00;3.00;;;;;12.68;62.47;100947.31;5052883;28;45229;-60
2022/11/06 04:13:59;;;;;;;;;4.67;3.33;;;;;12.66;61.70;100943.69;5061993;28;45115;-60
2022/11/06 04:16:30;;;;;;;;;7.00;4.33;;;;;12.64;62.53;100934.72;5050126;28;44925;-60
2022/11/06 04:18:56;;;;;;;;;3.67;3.67;;;;;12.65;62.20;100925.78;5034370;28;45224;-61
2022/11/06 04:21:44;;;;;;;;;4.67;3.67;;;;;12.61;61.62;100916.78;5047606;28;45040;-61
2022/11/06 04:27:27;;;;;;;;;2.67;2.67;;;;;12.62;62.68;100923.03;5052248;28;45274;-61
2022/11/06 04:30:07;;;;;;;;;3.00;3.00;;;;;12.63;62.11;100931.13;5052945;28;44958;-61
2022/11/06 04:32:39;;;;;;;;;5.00;4.00;;;;;12.63;61.66;100923.06;5055897;28;45648;-61
2022/11/06 04:35:24;;;;;;;;;8.00;4.00;;;;;12.57;62.43;100920.25;5053691;28;45688;-62
2022/11/06 04:38:11;;;;;;;;;7.00;4.00;;;;;12.60;62.25;100923.00;5052184;28;45080;-62
2022/11/06 04:41:03;;;;;;;;;5.00;5.00;;;;;12.60;61.95;100922.13;5052208;28;44914;-60
2022/11/06 04:43:57;;;;;;;;;6.00;5.00;;;;;12.59;62.00;100921.22;5011678;28;45137;-60
2022/11/06 04:46:28;;;;;;;;;7.00;3.67;;;;;12.54;61.98;100920.22;5048947;28;45238;-60
2022/11/06 04:48:55;;;;;;;;;3.00;3.00;;;;;12.63;61.78;100927.53;5052466;28;45015;-62
2022/11/06 04:51:26;;;;;;;;;6.67;5.00;;;;;12.66;62.07;100922.25;5052305;28;45112;-61
2022/11/06 04:53:53;;;;;;;;;3.33;3.00;;;;;12.67;61.85;100918.69;5053606;28;45209;-61
2022/11/06 04:56:33;;;;;;;;;3.33;3.33;;;;;12.70;62.06;100918.75;5052398;28;46308;-62
2022/11/06 04:58:59;;;;;;;;;3.67;3.00;;;;;12.64;61.86;100903.44;5053252;28;45009;-61
2022/11/06 05:01:24;;;;;;;;;4.67;3.00;;;;;12.56;62.04;100904.19;5053466;28;45380;-62
2022/11/06 05:03:49;;;;;;;;;4.33;4.33;;;;;12.58;61.79;100907.78;5052424;28;45204;-61
2022/11/06 05:06:15;;;;;;;;;6.00;5.00;;;;;12.59;61.91;100915.84;5051826;28;45245;-61
2022/11/06 05:08:41;;;;;;;;;6.00;5.00;;;;;12.59;61.44;100899.78;5051875;28;45657;-60
2022/11/06 05:11:07;;;;;;;;;3.67;2.33;;;;;12.57;61.95;100885.41;5051160;28;45066;-61
2022/11/06 05:13:32;;;;;;;;;4.33;3.33;;;;;12.51;61.49;100878.16;5063828;28;45218;-61
2022/11/06 05:15:58;;;;;;;;;4.67;4.00;;;;;12.57;62.04;100890.78;5056123;28;45195;-62
2022/11/06 05:18:25;;;;;;;;;3.00;3.00;;;;;12.53;61.40;100883.56;5055177;28;45085;-60
2022/11/06 05:22:56;;;;;;;;;4.00;3.00;;;;;12.51;62.15;100890.69;5058300;28;44913;-61
2022/11/06 05:23:40;;;;;;;;;1.67;1.67;;;;;12.48;61.86;100890.59;5055227;28;45205;-61
2022/11/06 05:26:06;;;;;;;;;3.00;3.00;;;;;12.45;62.31;100883.38;5054888;28;45656;-60
2022/11/06 05:28:32;;;;;;;;;4.67;3.00;;;;;12.48;62.01;100880.78;5057861;28;45207;-60
2022/11/06 05:30:57;;;;;;;;;5.33;3.00;;;;;12.42;61.67;100856.53;5057857;28;45037;-61
2022/11/06 05:33:23;;;;;;;;;5.00;3.00;;;;;12.43;62.03;100862.81;5058413;28;45060;-61
2022/11/06 05:35:49;;;;;;;;;6.00;5.00;;;;;12.42;61.68;100848.50;5053089;28;45193;-60
2022/11/06 05:38:14;;;;;;;;;5.00;3.00;;;;;12.40;61.34;100852.03;5052417;28;44929;-61
2022/11/06 05:40:40;;;;;;;;;4.33;4.00;;;;;12.23;62.17;100835.63;5055439;28;45029;-60
2022/11/06 05:43:05;;;;;;;;;5.00;4.00;;;;;12.29;62.37;100850.03;5054839;28;45010;-60
2022/11/06 05:45:30;;;;;;;;;2.33;2.00;;;;;12.37;62.24;100849.28;5066231;28;48325;-60
2022/11/06 05:47:56;;;;;;;;;6.67;5.00;;;;;12.37;62.05;100847.50;5038423;28;45132;-62
2022/11/06 05:50:21;;;;;;;;;3.67;3.67;;;;;12.34;61.63;100836.72;5054557;28;45149;-60
2022/11/06 05:52:46;;;;;;;;;4.00;4.00;;;;;12.34;61.99;100844.75;5054537;28;47612;-59
2022/11/06 05:55:12;;;;;;;;;3.00;3.00;;;;;12.34;61.57;100855.47;5059238;28;54011;-61
2022/11/06 05:57:37;;;;;;;;;3.00;3.00;;;;;12.26;61.56;100844.63;5053437;28;45074;-62
2022/11/06 06:00:05;;;;;;;;;4.00;4.00;;;;;12.32;61.78;100860.81;5066027;28;45194;-60
2022/11/06 06:02:30;;;;;;;;;6.00;4.00;;;;;12.28;61.62;100850.91;5057521;28;45282;-60
2022/11/06 06:04:56;;;;;;;;;5.00;5.00;;;;;12.26;62.10;100849.97;5072222;28;51293;-60
2022/11/06 06:07:21;;;;;;;;;4.67;4.67;;;;;12.25;62.50;100847.25;5061864;28;62082;-61
2022/11/06 06:09:46;;;;;;;;;3.00;2.00;;;;;11.96;62.78;100807.34;5060755;28;45434;-61
2022/11/06 06:12:12;;;;;;;;;6.00;5.00;;;;;12.15;61.70;100835.44;5060164;28;45354;-59
2022/11/06 06:14:38;;;;;;;;;4.00;4.00;;;;;12.23;61.70;100840.97;5052400;28;45600;-60
2022/11/06 06:17:03;;;;;;;;;7.00;4.00;;;;;12.22;62.52;100849.88;5051434;28;45347;-60
2022/11/06 06:19:28;;;;;;;;;1.67;0.00;;;;;12.18;62.26;100832.84;5053099;28;44907;-61
2022/11/06 06:21:54;;;;;;;;;5.67;3.00;;;;;12.19;62.59;100823.91;5049842;28;45286;-60
2022/11/06 06:24:19;;;;;;;;;6.33;4.00;;;;;12.13;62.19;100822.00;5050907;28;51098;-61
2022/11/06 06:26:44;;;;;;;;;6.00;6.00;;;;;12.21;62.16;100831.97;5055261;28;45254;-61
2022/11/06 06:29:10;;;;;;;;;5.00;3.67;;;;;12.22;62.01;100826.66;5054175;28;49561;-61
2022/11/06 06:31:35;;;;;;;;;4.67;4.67;;;;;12.18;62.85;100827.47;5036161;28;45249;-61
2022/11/06 06:34:00;;;;;;;;;5.00;5.00;;;;;12.21;61.79;100810.53;5053781;28;57712;-60
2022/11/06 06:36:26;;;;;;;;;9.67;5.00;;;;;12.29;62.08;100808.94;5061985;28;44916;-61
2022/11/06 06:38:51;;;;;;;;;3.67;3.00;;;;;12.31;61.76;100797.38;5063127;28;45458;-61
2022/11/06 06:41:16;;;;;;;;;7.00;5.00;;;;;12.34;61.38;100789.41;5053460;28;45104;-60
2022/11/06 06:43:42;;;;;;;;;5.33;4.67;;;;;12.30;62.00;100790.22;5053784;28;45082;-61
2022/11/06 06:46:07;;;;;;;;;4.67;4.33;;;;;12.28;62.13;100791.97;5067738;28;45038;-60
2022/11/06 06:48:33;;;;;;;;;7.00;3.33;;;;;12.30;61.99;100782.16;5054277;28;45201;-59
2022/11/06 06:50:59;;;;;;;;;5.00;1.00;;;;;12.31;61.87;100784.00;5056278;28;45060;-61
2022/11/06 06:53:24;;;;;;;;;3.00;3.00;;;;;12.35;61.97;100783.16;5058125;28;45742;-60
2022/11/06 06:55:50;;;;;;;;;7.00;6.00;;;;;12.34;61.61;100776.03;5053946;28;45037;-61
2022/11/06 06:58:15;;;;;;;;;2.00;2.00;;;;;12.37;61.35;100772.47;5053944;28;45319;-61
2022/11/06 07:00:41;;;;;;;;;6.00;5.00;;;;;12.24;61.28;100747.25;5053998;28;45082;-59
2022/11/06 07:03:06;;;;;;;;;3.00;3.00;;;;;12.35;61.60;100753.69;5060123;28;45618;-61
2022/11/06 07:05:31;;;;;;;;;4.33;4.33;;;;;12.39;61.47;100757.34;5062268;28;45215;-60
2022/11/06 07:07:57;;;;;;;;;15.25;15.25;;;;;12.37;61.47;100753.72;5058191;28;45162;-61
2022/11/06 07:10:22;;;;;;;;;8.00;5.00;;;;;12.38;60.91;100751.97;5052892;28;45029;-61
2022/11/06 07:12:48;;;;;;;;;8.00;6.00;;;;;12.40;61.07;100763.59;5062098;28;45763;-61
2022/11/06 07:15:13;;;;;;;;;5.00;5.00;;;;;12.40;61.26;100761.81;5054779;28;45251;-59
2022/11/06 07:17:39;;;;;;;;;6.67;4.00;;;;;12.41;61.39;100770.78;5053358;28;45660;-60
2022/11/06 07:20:05;;;;;;;;;4.33;4.00;;;;;12.23;61.52;100740.06;5057711;28;45335;-61
2022/11/06 07:22:30;;;;;;;;;5.00;5.00;;;;;12.33;61.08;100747.41;5057130;28;45226;-61
2022/11/06 07:24:55;;;;;;;;;7.67;5.33;;;;;12.15;60.99;100701.53;5052885;28;44949;-62
2022/11/06 07:27:21;;;;;;;;;8.33;7.67;;;;;12.46;61.80;100759.28;5053670;28;44947;-62
2022/11/06 07:29:46;;;;;;;;;5.33;4.00;;;;;12.46;61.02;100748.56;5053468;28;45045;-60
2022/11/06 07:32:11;;;;;;;;;6.33;4.00;;;;;12.56;61.42;100757.66;5058702;28;45878;-60
2022/11/06 07:34:37;;;;;;;;;13.50;10.00;;;;;12.54;60.70;100756.75;5057449;28;46922;-62
2022/11/06 07:37:07;;;;;;;;;11.00;6.33;;;;;12.53;61.31;100742.41;5050904;28;45295;-62
2022/11/06 07:39:32;;;;;;;;;8.33;5.33;;;;;12.55;60.70;100745.13;5054127;28;45112;-62
2022/11/06 07:41:58;;;;;;;;;6.00;6.00;;;;;12.56;61.54;100733.53;5050799;28;45266;-61
2022/11/06 07:44:23;;;;;;;;;7.00;5.67;;;;;12.53;60.55;100734.38;5054109;28;45196;-61
2022/11/06 07:46:48;;;;;;;;;5.33;5.33;;;;;12.50;61.04;100733.44;5045789;28;45081;-60
2022/11/06 07:49:15;;;;;;;;;7.00;7.00;;;;;12.52;60.55;100732.59;5062182;28;44930;-61
2022/11/06 07:51:43;;;;;;;;;7.50;6.00;;;;;12.12;61.23;100672.00;5055473;28;46781;-60
2022/11/06 07:54:11;;;;;;;;;8.50;5.75;;;;;12.46;61.30;100735.16;5052713;28;45269;-59
2022/11/06 07:56:37;;;;;;;;;6.00;5.00;;;;;12.50;61.17;100741.47;5055238;28;45260;-60
2022/11/06 07:59:03;;;;;;;;;8.00;6.50;;;;;12.51;60.40;100736.13;5056134;28;45016;-59
2022/11/06 08:01:28;;;;;;;;;8.67;5.67;;;;;12.52;60.93;100729.00;5049209;28;45728;-59
2022/11/06 08:03:54;;;;;;;;;6.33;5.00;;;;;12.45;61.22;100729.75;5051968;28;46185;-60
2022/11/06 08:06:19;;;;;;;;;6.33;5.00;;;;;12.48;60.85;100735.19;5055439;28;45120;-60
2022/11/06 08:08:45;;;;;;;;;7.33;5.00;;;;;12.46;60.80;100727.13;5060262;28;45413;-60
2022/11/06 08:11:11;;;;;;;;;8.67;4.00;;;;;12.54;61.35;100735.31;5053368;28;46097;-60
2022/11/06 08:13:37;;;;;;;;;5.00;5.00;;;;;12.57;60.78;100732.66;5062460;28;44882;-59
2022/11/06 08:16:10;;;;;;;;;7.00;4.00;;;;;12.60;60.90;100729.13;5052329;28;44994;-61
2022/11/06 08:18:37;;;;;;;;;4.00;4.00;;;;;12.60;60.91;100730.03;5050707;28;45419;-59
2022/11/06 08:21:03;;;;;;;;;7.00;3.00;;;;;12.59;60.93;100717.53;5052477;28;46062;-59
2022/11/06 08:23:29;;;;;;;;;3.67;3.67;;;;;12.60;59.94;100710.38;5061212;28;45163;-59
2022/11/06 08:25:59;;;;;;;;;6.00;5.00;;;;;12.58;60.25;100696.94;5062352;28;45101;-60
2022/11/06 08:28:25;;;;;;;;;5.00;5.00;;;;;12.66;59.85;100706.03;5060051;28;44935;-59
2022/11/06 08:30:52;;;;;;;;;20.50;15.25;;;;;12.66;60.40;100708.69;5068394;28;45434;-61
2022/11/06 08:33:18;;;;;;;;;9.75;8.25;;;;;12.65;60.14;100698.84;5069375;28;45222;-60
2022/11/06 08:35:43;;;;;;;;;9.50;9.50;;;;;12.61;61.82;100693.44;5064205;28;45286;-60
2022/11/06 08:38:09;;;;;;;;;6.25;6.00;;;;;12.62;61.78;100700.56;5066795;28;45255;-59
2022/11/06 08:40:37;;;;;;;;;8.00;7.25;;;;;12.53;61.68;100693.28;5061640;28;45162;-61
2022/11/06 08:43:05;;;;;;;;;8.50;8.50;;;;;12.60;62.24;100713.94;5067979;28;45031;-61
2022/11/06 08:45:31;;;;;;;;;12.00;8.00;;;;;12.63;62.64;100716.69;5063074;28;44990;-60
2022/11/06 08:48:01;;;;;;;;;6.00;6.00;;;;;12.60;62.89;100713.94;5070495;28;45061;-59
2022/11/06 08:50:26;;;;;;;;;7.67;6.00;;;;;12.58;63.40;100712.13;5054531;28;45331;-60
2022/11/06 08:52:55;;;;;;;;;8.00;6.75;;;;;12.52;63.29;100703.13;5065282;28;45187;-60
2022/11/06 08:55:21;;;;;;;;;9.00;5.00;;;;;12.50;63.84;100703.94;5063274;28;45393;-60
2022/11/06 08:57:46;;;;;;;;;1.00;1.00;;;;;12.46;64.26;100715.50;5063881;28;47882;-62
2022/11/06 09:00:12;;;;;;;;;8.33;5.00;;;;;12.40;63.73;100716.28;5042868;28;47684;-60
2022/11/06 09:02:37;;;;;;;;;8.00;6.00;;;;;12.37;63.88;100710.84;5056264;28;45136;-61
2022/11/06 09:05:03;;;;;;;;;4.00;4.00;;;;;12.27;64.66;100715.13;5069585;28;44991;-60
2022/11/06 09:07:28;;;;;;;;;4.50;4.50;;;;;12.17;64.46;100713.16;5064421;28;44927;-62
2022/11/06 09:09:53;;;;;;;;;6.75;5.50;;;;;12.16;65.86;100717.63;5056485;28;57313;-62
2022/11/06 09:12:19;;;;;;;;;6.33;5.00;;;;;12.15;65.39;100698.84;5054682;28;56395;-60
2022/11/06 09:14:44;;;;;;;;;6.00;4.67;;;;;12.18;66.24;100693.56;5071415;28;44956;-61
2022/11/06 09:17:09;;;;;;;;;7.00;5.00;;;;;12.20;65.46;100674.84;5071250;28;45208;-61
2022/11/06 09:19:35;;;;;;;;;5.00;5.00;;;;;11.91;64.98;100630.56;5069772;28;65614;-61
2022/11/06 09:22:00;;;;;;;;;11.50;9.50;;;;;12.21;66.08;100688.25;5066772;28;45106;-60
2022/11/06 09:24:25;;;;;;;;;9.50;8.00;;;;;12.20;66.40;100680.19;5065655;28;45089;-60
2022/11/06 09:26:51;;;;;;;;;10.33;5.67;;;;;12.08;66.67;100648.72;5057558;28;45140;-60
2022/11/06 09:29:16;;;;;;;;;6.00;5.00;;;;;12.12;65.79;100653.25;5061848;28;47388;-61
2022/11/06 09:31:42;;;;;;;;;6.33;5.00;;;;;12.07;66.83;100625.50;5057427;28;45268;-61
2022/11/06 09:34:08;;;;;;;;;12.25;12.25;;;;;12.06;68.55;100626.34;5066837;28;45237;-62
2022/11/06 09:36:35;;;;;;;;;7.00;4.00;;;;;12.01;67.04;100622.69;5070347;28;45102;-60
2022/11/06 09:39:00;;;;;;;;;7.00;6.00;;;;;12.00;67.64;100618.25;5063338;28;45164;-61
2022/11/06 09:41:45;;;;;;;;;8.00;5.00;;;;;11.97;67.80;100624.41;5061938;28;46627;-61
2022/11/06 09:44:28;;;;;;;;;12.00;10.00;;;;;11.89;67.98;100618.88;5066441;28;45091;-61
2022/11/06 09:46:58;;;;;;;;;9.50;5.75;;;;;11.98;67.77;100635.16;5069245;28;45009;-60
2022/11/06 09:49:36;;;;;;;;;8.00;5.00;;;;;12.03;67.89;100618.25;5068392;28;46160;-61
2022/11/06 09:52:07;;;;;;;;;5.00;4.25;;;;;12.01;67.86;100604.88;5054067;28;45386;-61
2022/11/06 09:54:48;;;;;;;;;7.75;5.25;;;;;12.09;67.15;100623.75;5045384;28;45146;-61
2022/11/06 09:57:27;;;;;;;;;7.33;3.67;;;;;12.09;67.77;100626.41;5064309;28;45842;-61
2022/11/06 09:59:54;;;;;;;;;12.00;8.75;;;;;12.09;68.72;100623.75;5049685;28;46432;-61
2022/11/06 10:02:32;;;;;;;;;9.00;7.00;;;;;12.13;68.74;100615.78;5059216;28;45033;-61
2022/11/06 10:05:14;;;;;;;;;7.00;7.00;;;;;11.96;68.28;100579.78;5043514;28;45164;-60
2022/11/06 10:07:41;;;;;;;;;7.33;6.33;;;;;12.19;67.91;100614.09;5054434;28;45129;-61
2022/11/06 10:10:14;;;;;;;;;4.67;3.67;;;;;12.19;67.82;100593.56;5057008;28;45419;-60
2022/11/06 10:12:58;;;;;;;;;10.00;9.67;;;;;12.14;68.01;100611.34;5053866;28;45451;-61
2022/11/06 10:15:29;;;;;;;;;11.00;7.00;;;;;12.14;67.87;100614.94;5056378;28;45166;-61
2022/11/06 10:18:36;;;;;;;;;6.33;4.00;;;;;12.07;68.93;100607.63;5054808;28;45067;-61
2022/11/06 10:21:17;;;;;;;;;6.00;6.00;;;;;12.10;68.92;100602.34;5042845;28;45639;-60
2022/11/06 10:23:49;;;;;;;;;8.00;6.67;;;;;12.12;68.50;100603.25;5035600;28;45144;-60
2022/11/06 10:26:21;;;;;;;;;7.67;6.00;;;;;12.13;68.16;100605.09;5053900;28;45156;-61
2022/11/06 10:29:18;;;;;;;;;7.33;5.00;;;;;11.96;68.43;100591.41;5066826;28;45059;-61
2022/11/06 10:32:29;;;;;;;;;6.75;6.75;;;;;12.03;69.68;100608.47;5054191;28;45892;-60
2022/11/06 10:35:04;;;;;;;;;7.00;7.00;;;;;11.93;70.35;100585.09;5054892;28;44993;-61
2022/11/06 10:37:39;;;;;;;;;8.00;7.75;;;;;11.98;70.12;100602.16;5057565;28;45178;-62
2022/11/06 10:40:08;;;;;;;;;10.50;8.50;;;;;11.88;69.66;100598.34;5059230;28;45073;-62
2022/11/06 10:42:36;;;;;;;;;6.75;6.75;;;;;11.94;69.75;100614.53;5063438;28;45112;-60
2022/11/06 10:45:10;;;;;;;;;7.00;7.00;;;;;11.90;69.30;100618.03;5065263;28;45073;-61
2022/11/06 10:47:42;;;;;;;;;10.75;10.00;;;;;11.89;70.01;100616.19;5061862;28;45382;-62
2022/11/06 10:50:13;;;;;;;;;15.00;9.75;;;;;11.90;70.37;100609.09;5054418;28;45084;-62
2022/11/06 10:53:23;;;;;;;;;7.00;7.00;;;;;11.84;69.55;100606.28;5063364;28;45718;-61
2022/11/06 10:56:10;;;;;;;;;13.50;10.25;;;;;11.86;70.59;100599.19;5018462;28;44987;-61
2022/11/06 10:58:35;;;;;;;;;12.00;10.75;;;;;11.93;69.60;100593.13;5053549;28;45190;-62
2022/11/06 11:01:04;;;;;;;;;9.50;9.00;;;;;11.92;70.00;100578.81;5036574;28;45319;-61
2022/11/06 11:03:38;;;;;;;;;14.00;14.00;;;;;11.99;70.14;100571.78;5059868;28;45820;-61
2022/11/06 11:06:04;;;;;;;;;22.75;15.75;;;;;12.01;70.24;100567.41;5034844;28;46309;-63
2022/11/06 11:08:29;;;;;;;;;16.00;12.25;;;;;12.06;69.97;100562.09;5059288;28;44988;-61
2022/11/06 11:11:03;;;;;;;;;15.00;13.50;;;;;12.10;69.87;100562.19;5052306;28;45137;-62
2022/11/06 11:13:29;;;;;;;;;8.25;6.75;;;;;12.02;68.90;100549.53;5057601;28;45970;-62
2022/11/06 11:15:54;;;;;;;;;12.25;9.50;;;;;12.06;70.22;100557.66;5053240;28;44926;-61
2022/11/06 11:18:30;;;;;;;;;9.75;8.25;;;;;12.00;70.00;100559.34;5053828;28;45032;-62
2022/11/06 11:21:23;;;;;;;;;11.00;9.50;;;;;11.95;70.63;100556.56;5063090;28;44934;-62
2022/11/06 11:24:05;;;;;;;;;7.33;6.00;;;;;11.84;70.17;100548.28;5052476;28;45740;-60
2022/11/06 11:26:41;;;;;;;;;15.25;10.00;;;;;11.86;71.10;100549.22;5066870;28;45450;-61
2022/11/06 11:29:15;;;;;;;;;11.00;9.50;;;;;11.73;71.06;100523.09;5053735;28;45009;-61
2022/11/06 11:31:45;;;;;;;;;12.67;10.00;;;;;11.77;71.02;100524.97;5058368;28;45163;-62
2022/11/06 11:34:21;;;;;;;;;11.00;7.75;;;;;11.86;71.11;100529.59;5053807;28;45307;-63
2022/11/06 11:36:51;;;;;;;;;13.00;9.50;;;;;11.89;71.21;100525.19;5052051;28;45321;-61
2022/11/06 11:39:19;;;;;;;;;13.50;11.00;;;;;11.83;71.20;100486.69;5052325;28;45116;-62
2022/11/06 11:41:44;;;;;;;;;15.50;9.75;;;;;11.86;71.46;100497.47;5055345;28;45885;-63
2022/11/06 11:44:10;;;;;;;;;12.00;10.25;;;;;11.92;70.96;100511.88;5053505;28;45385;-63
2022/11/06 11:46:53;;;;;;;;;15.75;10.50;;;;;11.92;71.16;100509.22;5062751;28;45216;-62
2022/11/06 11:49:25;;;;;;;;;9.75;8.00;;;;;11.94;70.35;100501.22;5060294;28;46807;-64
2022/11/06 11:51:50;;;;;;;;;12.50;9.50;;;;;11.98;71.08;100492.38;5058258;28;45179;-62